createdAt,value
2017-10-27T00:51:32.253Z,20.49
2017-10-27T00:53:59.495Z,20.48
2017-10-27T00:56:26.710Z,20.47
2017-10-27T00:58:53.952Z,20.46
2017-10-27T01:01:21.213Z,20.46
2017-10-27T01:03:48.429Z,20.47
2017-10-27T01:06:15.584Z,20.49
2017-10-27T01:08:42.803Z,20.52
2017-10-27T01:11:09.964Z,20.56
2017-10-27T01:13:37.124Z,20.50
2017-10-27T01:16:04.382Z,20.47
2017-10-27T01:18:31.528Z,20.37
2017-10-27T01:20:58.824Z,20.33
2017-10-27T01:23:26.012Z,20.31
2017-10-27T01:25:54.288Z,20.25
2017-10-27T05:08:27.140Z,20.82
2017-10-27T05:10:54.408Z,20.84
2017-10-27T05:13:21.603Z,20.83
2017-10-27T05:15:48.874Z,20.88
2017-10-27T05:18:16.111Z,20.91
2017-10-27T05:20:43.406Z,20.93
2017-10-27T05:23:10.732Z,20.97
2017-10-27T05:25:37.986Z,21.00
2017-10-27T05:28:05.231Z,21.02
2017-10-27T06:40:45.590Z,21.97
2017-10-27T06:43:14.005Z,22.02
2017-10-27T07:54:42.989Z,23.32
2017-10-27T10:37:12.300Z,24.11
2017-10-27T10:39:39.603Z,24.13
2017-10-27T10:47:16.003Z,24.13
2017-10-27T10:49:43.407Z,24.14
2017-10-27T10:54:43.045Z,24.18
2017-10-27T15:44:52.524Z,24.66
2017-10-27T15:47:19.757Z,24.66
2017-10-27T15:49:46.969Z,24.66
2017-10-27T15:52:14.230Z,24.64
2017-10-27T15:54:41.457Z,24.62
2017-10-27T17:06:20.670Z,24.14
2017-10-27T17:08:48.099Z,24.15
2017-10-27T17:11:15.363Z,24.15
2017-10-27T17:13:42.577Z,24.15
2017-10-27T17:16:09.775Z,24.16
2017-10-27T17:18:36.975Z,24.17
2017-10-27T17:21:04.171Z,24.17
2017-10-27T17:23:31.363Z,24.15
2017-10-27T17:25:58.655Z,24.16
2017-10-27T17:28:25.881Z,24.16
2017-10-27T17:30:53.113Z,24.16
2017-10-27T17:33:20.265Z,24.15
2017-10-27T17:35:47.484Z,24.13
2017-10-27T17:38:14.722Z,24.17
2017-10-27T17:41:02.538Z,24.17
2017-10-27T17:43:50.323Z,24.16
2017-10-27T17:46:41.269Z,24.16
2017-10-27T17:49:11.749Z,24.16
2017-10-27T17:51:56.086Z,24.14
2017-10-27T17:54:23.308Z,24.13
2017-10-27T17:56:50.529Z,24.12
2017-10-27T17:59:17.786Z,24.07
2017-10-27T18:01:44.959Z,24.02
2017-10-27T18:04:12.173Z,23.97
2017-10-27T18:06:39.417Z,23.90
2017-10-27T18:09:06.743Z,23.84
2017-10-27T18:11:34.640Z,23.78
2017-10-27T18:14:01.901Z,23.73
2017-10-27T18:16:29.242Z,23.69
2017-10-27T18:19:11.319Z,23.65
2017-10-27T18:21:38.610Z,23.61
2017-10-27T18:24:05.814Z,23.55
2017-10-27T18:26:32.994Z,23.51
2017-10-27T18:29:04.042Z,23.47
2017-10-27T18:31:31.229Z,23.43
2017-10-27T18:34:19.049Z,23.39
2017-10-27T18:36:46.320Z,23.33
2017-10-27T18:39:13.619Z,23.32
2017-10-27T18:41:40.835Z,23.28
2017-10-27T18:44:08.079Z,23.23
2017-10-27T18:46:35.323Z,23.21
2017-10-27T18:49:02.524Z,23.18
2017-10-27T18:51:29.684Z,23.16
2017-10-27T18:53:57.019Z,23.13
2017-10-27T18:56:34.933Z,23.07
2017-10-27T18:59:02.144Z,23.07
2017-10-27T19:01:39.505Z,23.08
2017-10-27T19:04:06.757Z,23.07
2017-10-27T19:09:37.256Z,23.06
2017-10-27T19:12:25.349Z,23.03
2017-10-27T19:14:52.588Z,22.99
2017-10-27T19:17:40.291Z,22.96
2017-10-27T19:20:07.635Z,22.93
2017-10-27T19:22:34.812Z,22.89
2017-10-27T19:25:09.416Z,22.88
2017-10-27T19:27:44.984Z,22.85
2017-10-27T19:30:12.212Z,22.82
2017-10-27T19:32:39.441Z,22.78
2017-10-27T19:35:19.275Z,22.76
2017-10-27T19:37:46.487Z,22.73
2017-10-27T19:43:20.578Z,22.67
2017-10-27T19:48:21.172Z,22.64
2017-10-27T19:50:48.580Z,22.61
2017-10-27T19:53:15.886Z,22.59
2017-10-27T19:55:43.091Z,22.57
2017-10-27T19:58:21.069Z,22.54
2017-10-27T20:00:48.260Z,22.52
2017-10-27T20:03:16.161Z,22.51
2017-10-27T20:05:43.457Z,22.49
2017-10-27T20:08:10.703Z,22.47
2017-10-27T20:10:37.912Z,22.44
2017-10-27T20:13:05.089Z,22.43
2017-10-27T20:15:32.346Z,22.41
2017-10-27T20:17:59.522Z,22.40
2017-10-27T20:20:26.732Z,22.37
2017-10-27T20:22:53.901Z,22.36
2017-10-27T20:25:21.121Z,22.34
2017-10-27T20:27:48.383Z,22.33
2017-10-27T20:30:15.612Z,22.30
2017-10-27T20:32:42.844Z,22.28
2017-10-27T20:35:10.105Z,22.27
2017-10-27T20:37:37.261Z,22.23
2017-10-27T20:40:04.468Z,22.22
2017-10-27T20:42:31.696Z,22.20
2017-10-27T20:44:58.877Z,22.19
2017-10-27T20:47:26.086Z,22.18
2017-10-27T20:49:53.252Z,22.16
2017-10-27T20:52:20.480Z,22.14
2017-10-27T20:54:52.967Z,22.13
2017-10-27T20:57:22.430Z,22.11
2017-10-27T20:59:49.706Z,22.10
2017-10-27T21:02:17.106Z,22.08
2017-10-27T21:04:44.324Z,22.07
2017-10-27T21:07:11.551Z,22.06
2017-10-27T21:09:38.775Z,22.04
2017-10-27T21:12:06.022Z,22.04
2017-10-27T21:14:33.231Z,22.02
2017-10-27T21:17:00.495Z,22.02
2017-10-27T21:19:27.845Z,21.99
2017-10-27T21:21:59.600Z,21.98
2017-10-27T21:24:27.013Z,21.96
2017-10-27T21:26:54.209Z,21.95
2017-10-27T21:29:21.491Z,21.96
2017-10-27T21:31:48.713Z,21.95
2017-10-27T21:34:15.995Z,21.94
2017-10-27T21:36:43.159Z,21.94
2017-10-27T21:39:10.417Z,21.93
2017-10-27T21:41:37.649Z,21.91
2017-10-27T21:44:04.813Z,21.90
2017-10-27T21:46:31.981Z,21.88
2017-10-27T21:48:59.202Z,21.88
2017-10-27T21:51:26.423Z,21.87
2017-10-27T21:53:53.593Z,21.86
2017-10-27T21:56:20.794Z,21.85
2017-10-27T21:58:47.986Z,21.84
2017-10-27T22:01:15.448Z,21.83
2017-10-27T22:03:42.638Z,21.83
2017-10-27T22:06:09.835Z,21.81
2017-10-27T22:08:37.044Z,21.81
2017-10-27T22:11:04.321Z,21.80
2017-10-27T22:13:31.502Z,21.80
2017-10-27T22:15:58.706Z,21.79
2017-10-27T22:18:25.927Z,21.78
2017-10-27T22:20:53.200Z,21.77
2017-10-27T22:23:20.411Z,21.76
2017-10-27T22:25:47.640Z,21.77
2017-10-27T22:28:14.862Z,21.76
2017-10-27T22:30:42.083Z,21.76
2017-10-27T22:33:09.346Z,21.75
2017-10-27T22:35:36.593Z,21.74
2017-10-27T22:38:03.910Z,21.74
2017-10-27T22:40:31.069Z,21.73
2017-10-27T22:42:58.290Z,21.73
2017-10-27T22:45:25.540Z,21.73
2017-10-27T22:47:52.942Z,21.71
2017-10-27T22:50:20.143Z,21.71
2017-10-27T22:52:47.382Z,21.70
2017-10-27T22:55:14.555Z,21.70
2017-10-27T22:57:41.774Z,21.69
2017-10-27T23:00:08.984Z,21.68
2017-10-27T23:02:43.037Z,21.68
2017-10-27T23:05:10.552Z,21.67
2017-10-27T23:07:37.741Z,21.67
2017-10-27T23:10:04.959Z,21.66
2017-10-27T23:12:32.203Z,21.65
2017-10-27T23:14:59.372Z,21.64
2017-10-27T23:17:26.565Z,21.64
2017-10-27T23:19:53.784Z,21.63
2017-10-27T23:22:20.935Z,21.62
2017-10-27T23:24:48.148Z,21.61
2017-10-27T23:27:15.364Z,21.61
2017-10-27T23:29:42.535Z,21.61
2017-10-27T23:32:09.735Z,21.61
2017-10-27T23:34:36.951Z,21.59
2017-10-27T23:37:04.130Z,21.60
2017-10-27T23:39:31.332Z,21.58
2017-10-27T23:41:58.577Z,21.57
2017-10-27T23:44:25.816Z,21.56
2017-10-27T23:46:52.993Z,21.56
2017-10-27T23:49:20.213Z,21.55
2017-10-27T23:51:47.412Z,21.54
2017-10-27T23:54:14.575Z,21.54
2017-10-27T23:56:41.818Z,21.52
2017-10-27T23:59:09.014Z,21.51
